sensor_id;sensor_type;location;lat;lon;timestamp;P1;durP1;ratioP1;P2;durP2;ratioP2
16543;SDS011;8384;47.996;7.786;2023-04-30T00:01:56;9.67;;;8.87;;
16543;SDS011;8384;47.996;7.786;2023-04-30T00:04:22;9.00;;;8.30;;
16543;SDS011;8384;47.996;7.786;2023-04-30T00:06:47;9.27;;;8.57;;
16543;SDS011;8384;47.996;7.786;2023-04-30T00:09:12;9.47;;;8.70;;
16543;SDS011;8384;47.996;7.786;2023-04-30T00:11:37;9.70;;;8.90;;
16543;SDS011;8384;47.996;7.786;2023-04-30T00:14:03;8.90;;;8.20;;
16543;SDS011;8384;47.996;7.786;2023-04-30T00:16:28;9.00;;;8.30;;
16543;SDS011;8384;47.996;7.786;2023-04-30T00:18:53;10.33;;;9.40;;
16543;SDS011;8384;47.996;7.786;2023-04-30T00:21:18;9.87;;;9.13;;
16543;SDS011;8384;47.996;7.786;2023-04-30T00:23:44;9.90;;;9.10;;
16543;SDS011;8384;47.996;7.786;2023-04-30T00:26:09;10.10;;;9.30;;
16543;SDS011;8384;47.996;7.786;2023-04-30T00:28:34;9.83;;;9.00;;
16543;SDS011;8384;47.996;7.786;2023-04-30T00:31:00;10.17;;;9.27;;
16543;SDS011;8384;47.996;7.786;2023-04-30T00:33:25;9.50;;;8.70;;
16543;SDS011;8384;47.996;7.786;2023-04-30T00:35:50;10.00;;;9.20;;
16543;SDS011;8384;47.996;7.786;2023-04-30T00:38:15;9.80;;;8.90;;
16543;SDS011;8384;47.996;7.786;2023-04-30T00:40:41;9.87;;;9.07;;
16543;SDS011;8384;47.996;7.786;2023-04-30T00:43:07;10.10;;;9.30;;
16543;SDS011;8384;47.996;7.786;2023-04-30T00:45:32;9.80;;;9.00;;
16543;SDS011;8384;47.996;7.786;2023-04-30T00:47:58;9.97;;;9.17;;
16543;SDS011;8384;47.996;7.786;2023-04-30T00:50:23;9.90;;;9.00;;
16543;SDS011;8384;47.996;7.786;2023-04-30T00:52:49;9.57;;;8.77;;
16543;SDS011;8384;47.996;7.786;2023-04-30T00:55:14;10.13;;;9.30;;
16543;SDS011;8384;47.996;7.786;2023-04-30T00:57:41;10.48;;;9.57;;
16543;SDS011;8384;47.996;7.786;2023-04-30T01:00:06;9.97;;;9.17;;
16543;SDS011;8384;47.996;7.786;2023-04-30T01:02:35;10.77;;;9.88;;
16543;SDS011;8384;47.996;7.786;2023-04-30T01:05:01;10.70;;;9.80;;
16543;SDS011;8384;47.996;7.786;2023-04-30T01:07:27;10.30;;;9.40;;
16543;SDS011;8384;47.996;7.786;2023-04-30T01:09:54;11.25;;;10.25;;
16543;SDS011;8384;47.996;7.786;2023-04-30T01:12:20;10.73;;;9.82;;
16543;SDS011;8384;47.996;7.786;2023-04-30T01:14:56;11.15;;;10.25;;
16543;SDS011;8384;47.996;7.786;2023-04-30T01:17:33;10.70;;;9.90;;
16543;SDS011;8384;47.996;7.786;2023-04-30T01:20:16;10.95;;;10.05;;
16543;SDS011;8384;47.996;7.786;2023-04-30T01:25:59;11.35;;;10.35;;
16543;SDS011;8384;47.996;7.786;2023-04-30T01:28:34;11.65;;;10.65;;
16543;SDS011;8384;47.996;7.786;2023-04-30T01:31:00;12.82;;;11.63;;
16543;SDS011;8384;47.996;7.786;2023-04-30T01:33:25;11.80;;;10.80;;
16543;SDS011;8384;47.996;7.786;2023-04-30T01:38:44;12.10;;;11.10;;
16543;SDS011;8384;47.996;7.786;2023-04-30T01:41:39;11.75;;;10.75;;
16543;SDS011;8384;47.996;7.786;2023-04-30T01:44:23;11.93;;;10.93;;
16543;SDS011;8384;47.996;7.786;2023-04-30T01:47:05;12.27;;;11.27;;
16543;SDS011;8384;47.996;7.786;2023-04-30T01:49:50;12.93;;;11.85;;
16543;SDS011;8384;47.996;7.786;2023-04-30T01:52:58;12.85;;;11.85;;
16543;SDS011;8384;47.996;7.786;2023-04-30T01:55:29;12.97;;;11.90;;
16543;SDS011;8384;47.996;7.786;2023-04-30T01:58:11;12.52;;;11.43;;
16543;SDS011;8384;47.996;7.786;2023-04-30T02:00:39;13.43;;;12.32;;
16543;SDS011;8384;47.996;7.786;2023-04-30T02:03:04;14.00;;;12.80;;
16543;SDS011;8384;47.996;7.786;2023-04-30T02:05:30;13.80;;;12.67;;
16543;SDS011;8384;47.996;7.786;2023-04-30T02:07:55;14.10;;;12.90;;
16543;SDS011;8384;47.996;7.786;2023-04-30T02:10:21;14.60;;;13.30;;
16543;SDS011;8384;47.996;7.786;2023-04-30T02:12:48;14.93;;;13.65;;
16543;SDS011;8384;47.996;7.786;2023-04-30T02:15:13;14.90;;;13.50;;
16543;SDS011;8384;47.996;7.786;2023-04-30T02:17:39;14.20;;;12.98;;
16543;SDS011;8384;47.996;7.786;2023-04-30T02:20:04;14.60;;;13.37;;
16543;SDS011;8384;47.996;7.786;2023-04-30T02:22:31;14.43;;;13.23;;
16543;SDS011;8384;47.996;7.786;2023-04-30T02:24:56;14.30;;;13.10;;
16543;SDS011;8384;47.996;7.786;2023-04-30T02:27:22;15.10;;;13.80;;
16543;SDS011;8384;47.996;7.786;2023-04-30T02:29:48;14.75;;;13.55;;
16543;SDS011;8384;47.996;7.786;2023-04-30T02:32:14;15.52;;;14.18;;
16543;SDS011;8384;47.996;7.786;2023-04-30T02:34:39;16.17;;;14.77;;
16543;SDS011;8384;47.996;7.786;2023-04-30T02:37:05;15.93;;;14.60;;
16543;SDS011;8384;47.996;7.786;2023-04-30T02:39:31;15.32;;;14.02;;
16543;SDS011;8384;47.996;7.786;2023-04-30T02:41:56;16.80;;;15.30;;
16543;SDS011;8384;47.996;7.786;2023-04-30T02:44:22;17.13;;;15.63;;
16543;SDS011;8384;47.996;7.786;2023-04-30T02:46:47;16.80;;;15.30;;
16543;SDS011;8384;47.996;7.786;2023-04-30T02:49:13;17.23;;;15.63;;
16543;SDS011;8384;47.996;7.786;2023-04-30T02:51:38;17.30;;;15.87;;
16543;SDS011;8384;47.996;7.786;2023-04-30T02:54:03;18.00;;;16.40;;
16543;SDS011;8384;47.996;7.786;2023-04-30T02:56:29;18.57;;;16.87;;
16543;SDS011;8384;47.996;7.786;2023-04-30T02:58:54;18.33;;;16.70;;
16543;SDS011;8384;47.996;7.786;2023-04-30T03:01:20;19.63;;;17.73;;
16543;SDS011;8384;47.996;7.786;2023-04-30T03:03:45;19.63;;;17.83;;
16543;SDS011;8384;47.996;7.786;2023-04-30T03:06:10;18.63;;;16.97;;
16543;SDS011;8384;47.996;7.786;2023-04-30T03:08:36;19.73;;;17.93;;
16543;SDS011;8384;47.996;7.786;2023-04-30T03:11:01;19.07;;;17.47;;
16543;SDS011;8384;47.996;7.786;2023-04-30T03:13:26;19.95;;;18.15;;
16543;SDS011;8384;47.996;7.786;2023-04-30T03:15:58;20.58;;;18.77;;
16543;SDS011;8384;47.996;7.786;2023-04-30T03:18:25;21.10;;;19.20;;
16543;SDS011;8384;47.996;7.786;2023-04-30T03:20:51;19.88;;;18.08;;
16543;SDS011;8384;47.996;7.786;2023-04-30T03:23:16;19.70;;;17.90;;
16543;SDS011;8384;47.996;7.786;2023-04-30T03:25:41;19.93;;;18.13;;
16543;SDS011;8384;47.996;7.786;2023-04-30T03:28:06;20.03;;;18.27;;
16543;SDS011;8384;47.996;7.786;2023-04-30T03:30:32;19.90;;;18.10;;
16543;SDS011;8384;47.996;7.786;2023-04-30T03:32:57;20.03;;;18.23;;
16543;SDS011;8384;47.996;7.786;2023-04-30T03:35:22;19.90;;;18.10;;
16543;SDS011;8384;47.996;7.786;2023-04-30T03:37:48;20.35;;;18.55;;
16543;SDS011;8384;47.996;7.786;2023-04-30T03:40:13;20.13;;;18.33;;
16543;SDS011;8384;47.996;7.786;2023-04-30T03:42:38;19.55;;;17.85;;
16543;SDS011;8384;47.996;7.786;2023-04-30T03:45:04;19.75;;;17.95;;
16543;SDS011;8384;47.996;7.786;2023-04-30T03:47:29;20.23;;;18.50;;
16543;SDS011;8384;47.996;7.786;2023-04-30T03:49:55;20.40;;;18.60;;
16543;SDS011;8384;47.996;7.786;2023-04-30T03:52:20;20.07;;;18.30;;
16543;SDS011;8384;47.996;7.786;2023-04-30T03:54:46;19.08;;;17.48;;
16543;SDS011;8384;47.996;7.786;2023-04-30T03:57:11;19.30;;;17.60;;
16543;SDS011;8384;47.996;7.786;2023-04-30T03:59:38;20.40;;;18.60;;
16543;SDS011;8384;47.996;7.786;2023-04-30T04:02:04;19.73;;;17.92;;
16543;SDS011;8384;47.996;7.786;2023-04-30T04:04:30;20.52;;;18.70;;
16543;SDS011;8384;47.996;7.786;2023-04-30T04:06:55;21.03;;;19.13;;
16543;SDS011;8384;47.996;7.786;2023-04-30T04:09:21;21.30;;;19.40;;
16543;SDS011;8384;47.996;7.786;2023-04-30T04:11:46;20.47;;;18.67;;
16543;SDS011;8384;47.996;7.786;2023-04-30T04:14:11;21.47;;;19.53;;
16543;SDS011;8384;47.996;7.786;2023-04-30T04:16:37;21.03;;;19.10;;
16543;SDS011;8384;47.996;7.786;2023-04-30T04:19:02;21.47;;;19.47;;
16543;SDS011;8384;47.996;7.786;2023-04-30T04:21:28;22.20;;;20.10;;
16543;SDS011;8384;47.996;7.786;2023-04-30T04:23:53;21.83;;;19.83;;
16543;SDS011;8384;47.996;7.786;2023-04-30T04:26:19;21.77;;;19.67;;
16543;SDS011;8384;47.996;7.786;2023-04-30T04:28:45;21.92;;;19.92;;
16543;SDS011;8384;47.996;7.786;2023-04-30T04:31:12;20.92;;;19.02;;
16543;SDS011;8384;47.996;7.786;2023-04-30T04:33:37;21.05;;;19.20;;
16543;SDS011;8384;47.996;7.786;2023-04-30T04:36:02;21.50;;;19.50;;
16543;SDS011;8384;47.996;7.786;2023-04-30T04:38:28;21.60;;;19.63;;
16543;SDS011;8384;47.996;7.786;2023-04-30T04:40:53;22.05;;;20.05;;
16543;SDS011;8384;47.996;7.786;2023-04-30T04:43:19;21.13;;;19.23;;
16543;SDS011;8384;47.996;7.786;2023-04-30T04:45:45;19.95;;;18.05;;
16543;SDS011;8384;47.996;7.786;2023-04-30T04:48:11;19.98;;;18.17;;
16543;SDS011;8384;47.996;7.786;2023-04-30T04:50:37;19.10;;;17.43;;
16543;SDS011;8384;47.996;7.786;2023-04-30T04:53:02;18.60;;;16.90;;
16543;SDS011;8384;47.996;7.786;2023-04-30T04:55:27;18.58;;;16.88;;
16543;SDS011;8384;47.996;7.786;2023-04-30T04:57:52;16.90;;;15.40;;
16543;SDS011;8384;47.996;7.786;2023-04-30T05:00:18;16.60;;;15.10;;
16543;SDS011;8384;47.996;7.786;2023-04-30T05:02:45;16.98;;;15.45;;
16543;SDS011;8384;47.996;7.786;2023-04-30T05:05:11;15.40;;;14.10;;
16543;SDS011;8384;47.996;7.786;2023-04-30T05:07:36;15.43;;;14.03;;
16543;SDS011;8384;47.996;7.786;2023-04-30T05:10:01;14.40;;;13.10;;
16543;SDS011;8384;47.996;7.786;2023-04-30T05:12:26;13.87;;;12.67;;
16543;SDS011;8384;47.996;7.786;2023-04-30T05:14:52;13.93;;;12.73;;
16543;SDS011;8384;47.996;7.786;2023-04-30T05:17:17;14.30;;;13.13;;
16543;SDS011;8384;47.996;7.786;2023-04-30T05:19:42;14.20;;;12.90;;
16543;SDS011;8384;47.996;7.786;2023-04-30T05:22:08;14.75;;;13.50;;
16543;SDS011;8384;47.996;7.786;2023-04-30T05:24:33;15.33;;;13.97;;
16543;SDS011;8384;47.996;7.786;2023-04-30T05:26:58;15.82;;;14.50;;
16543;SDS011;8384;47.996;7.786;2023-04-30T05:29:24;15.33;;;14.13;;
16543;SDS011;8384;47.996;7.786;2023-04-30T05:31:49;14.90;;;13.70;;
16543;SDS011;8384;47.996;7.786;2023-04-30T05:34:14;15.13;;;13.83;;
16543;SDS011;8384;47.996;7.786;2023-04-30T05:36:40;14.30;;;13.10;;
16543;SDS011;8384;47.996;7.786;2023-04-30T05:39:05;12.77;;;11.67;;
16543;SDS011;8384;47.996;7.786;2023-04-30T05:41:30;11.67;;;10.67;;
16543;SDS011;8384;47.996;7.786;2023-04-30T05:43:55;11.60;;;10.60;;
16543;SDS011;8384;47.996;7.786;2023-04-30T05:46:21;11.70;;;10.70;;
16543;SDS011;8384;47.996;7.786;2023-04-30T05:48:46;11.00;;;10.10;;
16543;SDS011;8384;47.996;7.786;2023-04-30T05:51:12;10.07;;;9.27;;
16543;SDS011;8384;47.996;7.786;2023-04-30T05:53:37;10.80;;;9.90;;
16543;SDS011;8384;47.996;7.786;2023-04-30T05:56:03;9.30;;;8.50;;
16543;SDS011;8384;47.996;7.786;2023-04-30T05:58:28;8.73;;;8.02;;
16543;SDS011;8384;47.996;7.786;2023-04-30T06:00:53;8.73;;;8.03;;
16543;SDS011;8384;47.996;7.786;2023-04-30T06:03:18;8.50;;;7.80;;
16543;SDS011;8384;47.996;7.786;2023-04-30T06:05:44;7.43;;;6.83;;
16543;SDS011;8384;47.996;7.786;2023-04-30T06:08:10;7.72;;;7.03;;
16543;SDS011;8384;47.996;7.786;2023-04-30T06:10:35;6.80;;;6.30;;
16543;SDS011;8384;47.996;7.786;2023-04-30T06:13:01;7.90;;;7.20;;
16543;SDS011;8384;47.996;7.786;2023-04-30T06:15:27;6.72;;;6.22;;
16543;SDS011;8384;47.996;7.786;2023-04-30T06:17:52;7.80;;;7.13;;
16543;SDS011;8384;47.996;7.786;2023-04-30T06:20:17;7.60;;;6.93;;
16543;SDS011;8384;47.996;7.786;2023-04-30T06:22:43;7.20;;;6.60;;
16543;SDS011;8384;47.996;7.786;2023-04-30T06:25:08;7.77;;;7.17;;
16543;SDS011;8384;47.996;7.786;2023-04-30T06:27:33;8.57;;;7.87;;
16543;SDS011;8384;47.996;7.786;2023-04-30T06:29:59;8.77;;;7.87;;
16543;SDS011;8384;47.996;7.786;2023-04-30T06:32:25;7.97;;;7.27;;
16543;SDS011;8384;47.996;7.786;2023-04-30T06:34:50;7.83;;;7.17;;
16543;SDS011;8384;47.996;7.786;2023-04-30T06:37:15;6.70;;;6.20;;
16543;SDS011;8384;47.996;7.786;2023-04-30T06:39:41;5.90;;;5.40;;
16543;SDS011;8384;47.996;7.786;2023-04-30T06:42:06;4.17;;;3.77;;
16543;SDS011;8384;47.996;7.786;2023-04-30T06:44:31;3.00;;;2.80;;
16543;SDS011;8384;47.996;7.786;2023-04-30T06:46:57;2.88;;;2.67;;
16543;SDS011;8384;47.996;7.786;2023-04-30T06:49:22;3.33;;;3.08;;
16543;SDS011;8384;47.996;7.786;2023-04-30T06:51:47;3.20;;;2.90;;
16543;SDS011;8384;47.996;7.786;2023-04-30T06:54:12;3.57;;;3.27;;
16543;SDS011;8384;47.996;7.786;2023-04-30T06:56:38;3.20;;;3.00;;
16543;SDS011;8384;47.996;7.786;2023-04-30T06:59:03;3.70;;;3.27;;
16543;SDS011;8384;47.996;7.786;2023-04-30T07:01:29;4.37;;;3.97;;
16543;SDS011;8384;47.996;7.786;2023-04-30T07:03:54;3.50;;;3.20;;
16543;SDS011;8384;47.996;7.786;2023-04-30T07:06:19;3.40;;;3.20;;
16543;SDS011;8384;47.996;7.786;2023-04-30T07:08:45;4.13;;;3.80;;
16543;SDS011;8384;47.996;7.786;2023-04-30T07:11:10;4.33;;;4.03;;
16543;SDS011;8384;47.996;7.786;2023-04-30T07:13:36;3.13;;;2.83;;
16543;SDS011;8384;47.996;7.786;2023-04-30T07:16:02;3.15;;;2.85;;
16543;SDS011;8384;47.996;7.786;2023-04-30T07:18:28;2.75;;;2.55;;
16543;SDS011;8384;47.996;7.786;2023-04-30T07:20:53;4.00;;;3.60;;
16543;SDS011;8384;47.996;7.786;2023-04-30T07:23:19;3.30;;;3.00;;
16543;SDS011;8384;47.996;7.786;2023-04-30T07:25:45;3.50;;;3.20;;
16543;SDS011;8384;47.996;7.786;2023-04-30T07:28:10;3.20;;;2.90;;
16543;SDS011;8384;47.996;7.786;2023-04-30T07:30:35;2.57;;;2.37;;
16543;SDS011;8384;47.996;7.786;2023-04-30T07:33:01;2.37;;;2.20;;
16543;SDS011;8384;47.996;7.786;2023-04-30T07:35:26;2.92;;;2.63;;
16543;SDS011;8384;47.996;7.786;2023-04-30T07:37:52;2.50;;;2.30;;
16543;SDS011;8384;47.996;7.786;2023-04-30T07:40:17;3.60;;;3.30;;
16543;SDS011;8384;47.996;7.786;2023-04-30T07:42:42;2.60;;;2.40;;
16543;SDS011;8384;47.996;7.786;2023-04-30T07:45:09;2.30;;;2.20;;
16543;SDS011;8384;47.996;7.786;2023-04-30T07:47:34;2.40;;;2.20;;
16543;SDS011;8384;47.996;7.786;2023-04-30T07:49:59;2.50;;;2.30;;
16543;SDS011;8384;47.996;7.786;2023-04-30T07:52:25;2.30;;;2.13;;
16543;SDS011;8384;47.996;7.786;2023-04-30T07:54:50;2.70;;;2.50;;
16543;SDS011;8384;47.996;7.786;2023-04-30T07:57:15;2.40;;;2.20;;
16543;SDS011;8384;47.996;7.786;2023-04-30T07:59:41;2.50;;;2.30;;
16543;SDS011;8384;47.996;7.786;2023-04-30T08:02:07;2.40;;;2.20;;
16543;SDS011;8384;47.996;7.786;2023-04-30T08:04:33;2.20;;;2.10;;
16543;SDS011;8384;47.996;7.786;2023-04-30T08:06:58;2.50;;;2.30;;
16543;SDS011;8384;47.996;7.786;2023-04-30T08:09:25;2.42;;;2.22;;
16543;SDS011;8384;47.996;7.786;2023-04-30T08:11:51;2.57;;;2.37;;
16543;SDS011;8384;47.996;7.786;2023-04-30T08:14:17;2.30;;;2.10;;
16543;SDS011;8384;47.996;7.786;2023-04-30T08:16:42;2.40;;;2.20;;
16543;SDS011;8384;47.996;7.786;2023-04-30T08:19:07;1.80;;;1.70;;
16543;SDS011;8384;47.996;7.786;2023-04-30T08:21:32;2.30;;;2.10;;
16543;SDS011;8384;47.996;7.786;2023-04-30T08:23:58;2.30;;;2.10;;
16543;SDS011;8384;47.996;7.786;2023-04-30T08:26:24;2.05;;;1.95;;
16543;SDS011;8384;47.996;7.786;2023-04-30T08:28:49;2.13;;;2.03;;
16543;SDS011;8384;47.996;7.786;2023-04-30T08:31:14;2.30;;;2.10;;
16543;SDS011;8384;47.996;7.786;2023-04-30T08:33:41;1.90;;;1.80;;
16543;SDS011;8384;47.996;7.786;2023-04-30T08:36:06;2.10;;;2.00;;
16543;SDS011;8384;47.996;7.786;2023-04-30T08:38:31;2.00;;;1.90;;
16543;SDS011;8384;47.996;7.786;2023-04-30T08:43:38;1.98;;;1.88;;
16543;SDS011;8384;47.996;7.786;2023-04-30T08:46:04;2.03;;;1.93;;
16543;SDS011;8384;47.996;7.786;2023-04-30T08:48:30;2.30;;;2.10;;
16543;SDS011;8384;47.996;7.786;2023-04-30T08:50:59;2.03;;;1.85;;
16543;SDS011;8384;47.996;7.786;2023-04-30T08:53:26;2.08;;;1.88;;
16543;SDS011;8384;47.996;7.786;2023-04-30T08:55:51;1.90;;;1.80;;
16543;SDS011;8384;47.996;7.786;2023-04-30T08:58:17;5.63;;;5.03;;
16543;SDS011;8384;47.996;7.786;2023-04-30T09:00:42;1.80;;;1.70;;
16543;SDS011;8384;47.996;7.786;2023-04-30T09:03:07;1.80;;;1.70;;
16543;SDS011;8384;47.996;7.786;2023-04-30T09:05:33;1.85;;;1.70;;
16543;SDS011;8384;47.996;7.786;2023-04-30T09:07:59;1.90;;;1.80;;
16543;SDS011;8384;47.996;7.786;2023-04-30T09:10:24;2.00;;;1.57;;
16543;SDS011;8384;47.996;7.786;2023-04-30T09:13:03;2.07;;;1.90;;
16543;SDS011;8384;47.996;7.786;2023-04-30T09:15:32;1.85;;;1.70;;
16543;SDS011;8384;47.996;7.786;2023-04-30T09:20:38;1.70;;;1.60;;
16543;SDS011;8384;47.996;7.786;2023-04-30T09:23:18;1.85;;;1.75;;
16543;SDS011;8384;47.996;7.786;2023-04-30T09:25:43;2.10;;;1.90;;
16543;SDS011;8384;47.996;7.786;2023-04-30T09:28:12;1.80;;;1.70;;
16543;SDS011;8384;47.996;7.786;2023-04-30T09:30:38;2.53;;;1.90;;
16543;SDS011;8384;47.996;7.786;2023-04-30T09:33:05;1.60;;;1.50;;
16543;SDS011;8384;47.996;7.786;2023-04-30T09:35:32;1.80;;;1.70;;
16543;SDS011;8384;47.996;7.786;2023-04-30T09:37:59;1.85;;;1.75;;
16543;SDS011;8384;47.996;7.786;2023-04-30T09:40:39;1.70;;;1.60;;
16543;SDS011;8384;47.996;7.786;2023-04-30T09:43:06;1.80;;;1.70;;
16543;SDS011;8384;47.996;7.786;2023-04-30T09:45:41;1.70;;;1.60;;
16543;SDS011;8384;47.996;7.786;2023-04-30T09:48:10;1.70;;;1.60;;
16543;SDS011;8384;47.996;7.786;2023-04-30T09:50:36;2.00;;;1.80;;
16543;SDS011;8384;47.996;7.786;2023-04-30T09:53:06;1.70;;;1.60;;
16543;SDS011;8384;47.996;7.786;2023-04-30T09:55:35;1.70;;;1.60;;
16543;SDS011;8384;47.996;7.786;2023-04-30T09:58:05;1.60;;;1.50;;
16543;SDS011;8384;47.996;7.786;2023-04-30T10:00:33;1.88;;;1.77;;
16543;SDS011;8384;47.996;7.786;2023-04-30T10:02:59;1.60;;;1.50;;
16543;SDS011;8384;47.996;7.786;2023-04-30T10:05:36;2.60;;;1.55;;
16543;SDS011;8384;47.996;7.786;2023-04-30T10:08:05;1.80;;;1.70;;
16543;SDS011;8384;47.996;7.786;2023-04-30T10:10:34;1.88;;;1.77;;
16543;SDS011;8384;47.996;7.786;2023-04-30T10:13:03;1.80;;;1.70;;
16543;SDS011;8384;47.996;7.786;2023-04-30T10:15:35;1.87;;;1.77;;
16543;SDS011;8384;47.996;7.786;2023-04-30T10:18:04;2.03;;;1.75;;
16543;SDS011;8384;47.996;7.786;2023-04-30T10:20:34;1.83;;;1.73;;
16543;SDS011;8384;47.996;7.786;2023-04-30T10:23:00;1.70;;;1.60;;
16543;SDS011;8384;47.996;7.786;2023-04-30T10:25:26;1.90;;;1.80;;
16543;SDS011;8384;47.996;7.786;2023-04-30T10:27:52;1.80;;;1.70;;
16543;SDS011;8384;47.996;7.786;2023-04-30T10:30:18;1.80;;;1.70;;
16543;SDS011;8384;47.996;7.786;2023-04-30T10:32:58;2.00;;;1.90;;
16543;SDS011;8384;47.996;7.786;2023-04-30T10:35:45;1.70;;;1.60;;
16543;SDS011;8384;47.996;7.786;2023-04-30T10:38:21;2.40;;;2.20;;
16543;SDS011;8384;47.996;7.786;2023-04-30T10:40:49;2.25;;;2.08;;
16543;SDS011;8384;47.996;7.786;2023-04-30T10:43:19;2.10;;;2.00;;
16543;SDS011;8384;47.996;7.786;2023-04-30T10:45:45;1.90;;;1.80;;
16543;SDS011;8384;47.996;7.786;2023-04-30T10:48:11;1.80;;;1.70;;
16543;SDS011;8384;47.996;7.786;2023-04-30T10:50:40;1.83;;;1.73;;
16543;SDS011;8384;47.996;7.786;2023-04-30T10:53:06;1.90;;;1.80;;
16543;SDS011;8384;47.996;7.786;2023-04-30T10:55:31;1.97;;;1.87;;
16543;SDS011;8384;47.996;7.786;2023-04-30T10:57:57;1.85;;;1.75;;
16543;SDS011;8384;47.996;7.786;2023-04-30T11:00:27;1.87;;;1.77;;
16543;SDS011;8384;47.996;7.786;2023-04-30T11:02:57;1.80;;;1.70;;
16543;SDS011;8384;47.996;7.786;2023-04-30T11:05:34;1.70;;;1.60;;
16543;SDS011;8384;47.996;7.786;2023-04-30T11:08:02;1.70;;;1.60;;
16543;SDS011;8384;47.996;7.786;2023-04-30T11:10:29;2.00;;;1.90;;
16543;SDS011;8384;47.996;7.786;2023-04-30T11:12:57;1.80;;;1.70;;
16543;SDS011;8384;47.996;7.786;2023-04-30T11:15:25;1.70;;;1.60;;
16543;SDS011;8384;47.996;7.786;2023-04-30T11:17:56;1.90;;;1.80;;
16543;SDS011;8384;47.996;7.786;2023-04-30T11:20:23;1.80;;;1.65;;
16543;SDS011;8384;47.996;7.786;2023-04-30T11:23:08;2.00;;;1.90;;
16543;SDS011;8384;47.996;7.786;2023-04-30T11:25:42;1.60;;;1.50;;
16543;SDS011;8384;47.996;7.786;2023-04-30T11:28:19;1.77;;;1.67;;
16543;SDS011;8384;47.996;7.786;2023-04-30T11:30:57;1.70;;;1.60;;
16543;SDS011;8384;47.996;7.786;2023-04-30T11:33:24;1.80;;;1.70;;
16543;SDS011;8384;47.996;7.786;2023-04-30T11:35:51;1.90;;;1.80;;
16543;SDS011;8384;47.996;7.786;2023-04-30T11:38:18;1.95;;;1.85;;
16543;SDS011;8384;47.996;7.786;2023-04-30T11:40:46;1.60;;;1.50;;
16543;SDS011;8384;47.996;7.786;2023-04-30T11:43:32;1.77;;;1.67;;
16543;SDS011;8384;47.996;7.786;2023-04-30T11:48:34;1.70;;;1.60;;
16543;SDS011;8384;47.996;7.786;2023-04-30T11:51:02;2.22;;;2.03;;
16543;SDS011;8384;47.996;7.786;2023-04-30T11:53:38;2.70;;;2.50;;
16543;SDS011;8384;47.996;7.786;2023-04-30T11:56:03;2.30;;;2.10;;
16543;SDS011;8384;47.996;7.786;2023-04-30T11:58:32;2.00;;;1.90;;
16543;SDS011;8384;47.996;7.786;2023-04-30T12:01:02;1.90;;;1.80;;
16543;SDS011;8384;47.996;7.786;2023-04-30T12:03:28;2.03;;;1.92;;
16543;SDS011;8384;47.996;7.786;2023-04-30T12:05:53;1.80;;;1.70;;
16543;SDS011;8384;47.996;7.786;2023-04-30T12:08:18;1.90;;;1.80;;
16543;SDS011;8384;47.996;7.786;2023-04-30T12:10:44;1.93;;;1.80;;
16543;SDS011;8384;47.996;7.786;2023-04-30T12:13:12;2.00;;;1.90;;
16543;SDS011;8384;47.996;7.786;2023-04-30T12:15:38;1.70;;;1.60;;
16543;SDS011;8384;47.996;7.786;2023-04-30T12:18:09;1.80;;;1.70;;
16543;SDS011;8384;47.996;7.786;2023-04-30T12:20:37;2.00;;;1.90;;
16543;SDS011;8384;47.996;7.786;2023-04-30T12:23:03;2.08;;;1.95;;
16543;SDS011;8384;47.996;7.786;2023-04-30T12:25:29;2.03;;;1.93;;
16543;SDS011;8384;47.996;7.786;2023-04-30T12:27:54;1.93;;;1.83;;
16543;SDS011;8384;47.996;7.786;2023-04-30T12:30:24;2.10;;;1.90;;
16543;SDS011;8384;47.996;7.786;2023-04-30T12:32:55;2.30;;;2.10;;
16543;SDS011;8384;47.996;7.786;2023-04-30T12:35:27;2.20;;;2.10;;
16543;SDS011;8384;47.996;7.786;2023-04-30T12:38:02;2.15;;;2.00;;
16543;SDS011;8384;47.996;7.786;2023-04-30T12:40:29;2.03;;;1.83;;
16543;SDS011;8384;47.996;7.786;2023-04-30T12:43:04;1.93;;;1.80;;
16543;SDS011;8384;47.996;7.786;2023-04-30T12:48:16;2.10;;;2.00;;
16543;SDS011;8384;47.996;7.786;2023-04-30T12:50:46;1.92;;;1.83;;
16543;SDS011;8384;47.996;7.786;2023-04-30T12:53:11;2.30;;;2.10;;
16543;SDS011;8384;47.996;7.786;2023-04-30T12:55:37;2.30;;;2.10;;
16543;SDS011;8384;47.996;7.786;2023-04-30T12:58:06;2.03;;;1.92;;
16543;SDS011;8384;47.996;7.786;2023-04-30T13:00:46;2.25;;;2.05;;
16543;SDS011;8384;47.996;7.786;2023-04-30T13:03:13;2.45;;;2.20;;
16543;SDS011;8384;47.996;7.786;2023-04-30T13:05:40;2.28;;;2.17;;
16543;SDS011;8384;47.996;7.786;2023-04-30T13:08:06;2.10;;;2.00;;
16543;SDS011;8384;47.996;7.786;2023-04-30T13:10:31;2.35;;;2.15;;
16543;SDS011;8384;47.996;7.786;2023-04-30T13:12:57;2.30;;;2.20;;
16543;SDS011;8384;47.996;7.786;2023-04-30T13:15:23;2.10;;;2.00;;
16543;SDS011;8384;47.996;7.786;2023-04-30T13:17:49;2.50;;;2.30;;
16543;SDS011;8384;47.996;7.786;2023-04-30T13:20:14;2.17;;;2.07;;
16543;SDS011;8384;47.996;7.786;2023-04-30T13:22:40;2.30;;;2.10;;
16543;SDS011;8384;47.996;7.786;2023-04-30T13:25:05;2.03;;;1.93;;
16543;SDS011;8384;47.996;7.786;2023-04-30T13:27:31;2.13;;;2.03;;
16543;SDS011;8384;47.996;7.786;2023-04-30T13:29:56;2.33;;;2.15;;
16543;SDS011;8384;47.996;7.786;2023-04-30T13:32:21;2.17;;;2.07;;
16543;SDS011;8384;47.996;7.786;2023-04-30T13:34:46;1.90;;;1.80;;
16543;SDS011;8384;47.996;7.786;2023-04-30T13:37:12;3.15;;;2.92;;
16543;SDS011;8384;47.996;7.786;2023-04-30T13:39:37;2.10;;;2.00;;
16543;SDS011;8384;47.996;7.786;2023-04-30T13:42:02;2.77;;;2.30;;
16543;SDS011;8384;47.996;7.786;2023-04-30T13:44:28;2.20;;;2.00;;
16543;SDS011;8384;47.996;7.786;2023-04-30T13:46:56;2.60;;;2.50;;
16543;SDS011;8384;47.996;7.786;2023-04-30T13:49:21;2.40;;;2.20;;
16543;SDS011;8384;47.996;7.786;2023-04-30T13:51:47;2.67;;;2.40;;
16543;SDS011;8384;47.996;7.786;2023-04-30T13:54:12;2.30;;;2.10;;
16543;SDS011;8384;47.996;7.786;2023-04-30T13:56:37;2.67;;;2.47;;
16543;SDS011;8384;47.996;7.786;2023-04-30T13:59:03;2.50;;;2.30;;
16543;SDS011;8384;47.996;7.786;2023-04-30T14:01:28;2.70;;;2.50;;
16543;SDS011;8384;47.996;7.786;2023-04-30T14:03:53;3.80;;;3.50;;
16543;SDS011;8384;47.996;7.786;2023-04-30T14:06:19;2.83;;;2.63;;
16543;SDS011;8384;47.996;7.786;2023-04-30T14:08:44;2.50;;;2.30;;
16543;SDS011;8384;47.996;7.786;2023-04-30T14:11:09;2.13;;;2.03;;
16543;SDS011;8384;47.996;7.786;2023-04-30T14:13:35;2.50;;;2.30;;
16543;SDS011;8384;47.996;7.786;2023-04-30T14:16:00;2.37;;;2.17;;
16543;SDS011;8384;47.996;7.786;2023-04-30T14:18:25;2.78;;;2.60;;
16543;SDS011;8384;47.996;7.786;2023-04-30T14:20:51;2.67;;;2.47;;
16543;SDS011;8384;47.996;7.786;2023-04-30T14:23:16;2.73;;;2.53;;
16543;SDS011;8384;47.996;7.786;2023-04-30T14:25:41;2.50;;;2.30;;
16543;SDS011;8384;47.996;7.786;2023-04-30T14:28:07;2.10;;;2.00;;
16543;SDS011;8384;47.996;7.786;2023-04-30T14:30:32;2.77;;;2.57;;
16543;SDS011;8384;47.996;7.786;2023-04-30T14:32:57;4.97;;;4.57;;
16543;SDS011;8384;47.996;7.786;2023-04-30T14:35:22;3.70;;;3.50;;
16543;SDS011;8384;47.996;7.786;2023-04-30T14:37:48;3.57;;;3.37;;
16543;SDS011;8384;47.996;7.786;2023-04-30T14:40:13;2.40;;;2.20;;
16543;SDS011;8384;47.996;7.786;2023-04-30T14:42:38;2.30;;;2.10;;
16543;SDS011;8384;47.996;7.786;2023-04-30T14:45:04;2.10;;;2.00;;
16543;SDS011;8384;47.996;7.786;2023-04-30T14:47:30;2.13;;;2.03;;
16543;SDS011;8384;47.996;7.786;2023-04-30T14:49:55;2.27;;;2.00;;
16543;SDS011;8384;47.996;7.786;2023-04-30T14:52:22;2.35;;;2.15;;
16543;SDS011;8384;47.996;7.786;2023-04-30T14:54:48;2.20;;;2.00;;
16543;SDS011;8384;47.996;7.786;2023-04-30T14:57:13;2.10;;;2.00;;
16543;SDS011;8384;47.996;7.786;2023-04-30T14:59:39;2.60;;;2.40;;
16543;SDS011;8384;47.996;7.786;2023-04-30T15:02:05;18.30;;;16.83;;
16543;SDS011;8384;47.996;7.786;2023-04-30T15:04:31;36.13;;;33.13;;
16543;SDS011;8384;47.996;7.786;2023-04-30T15:06:56;4.97;;;4.47;;
16543;SDS011;8384;47.996;7.786;2023-04-30T15:09:21;2.38;;;2.22;;